Terminal Aerodrome Forecast
Issued by NWS San Angelo, TX

Home | Current Version | Previous Version | Text Only | Print | Product List | Glossary On
Versions: 1 2 3 4 5 6 7 8 9 10 11 12 13 14 15
008
FTUS44 KSJT 221731
TAFABI
TAF
KABI 221731Z 2218/2318 33023G33KT P6SM SKC
     FM230000 34006KT P6SM SKC
     FM230600 VRB03KT P6SM SKC=

USA.gov is the U.S. government's official web portal to all federal, state and local government web resources and services.